Calamocha, Spain
Current Conditions -  °F | °C
As of 8:00 AM on Sunday 26 Oct 2014 (Local Time) from LETL Reporting Station
Haze Haze  
Wind Chill: 48°   Ceiling: Unl
Heat Index: 48°   Visibility: 1.3mi
Dew Point: 39°   Wind: 1mph
Humidity: 71%   Direction: NA
Pressure: 30.3"   Gusts: NA
Location:  40.92°N, 1.3°W
Report Text: LETL 260600Z AUTO VRB01KT 2200 HZ VV/// 09/04 Q1026
Loading
Personal Weather Stations






























Interactive Weather Map
Tropical Storm Tracking
New forecast layout! Learn more

10-Day Weather Forecast

Advertisements
Track Severe Weather on mobile